Terminal Aerodrome Forecast
Issued by NWS Greer, SC

Home | Current Version | Previous Version | Text Only | Print | Product List | Glossary On
Versions: 1 2 3 4 5 6 7 8 9 10 11 12 13 14 15 16 17 18 19 20 21 22 23 24 25 26 27 28
000
FTUS42 KGSP 040535
TAFAVL
TAF
KAVL 040535Z 0406/0506 33004KT P6SM SCT250
     FM041500 33006KT P6SM SCT050 PROB30 0419/0422 4SM TSRA BKN040CB
     FM050200 34003KT P6SM SCT060=

USA.gov is the U.S. government's official web portal to all federal, state and local government web resources and services.